createdAt,value
2023-03-23T15:58:35.906Z,3.25
2023-03-23T16:01:08.404Z,4.18
2023-03-23T16:03:54.938Z,4.65
2023-03-23T16:06:25.882Z,4.82
2023-03-23T16:08:55.341Z,4.10
2023-03-23T16:11:25.902Z,4.00
2023-03-23T16:13:56.316Z,4.57
2023-03-23T16:16:29.477Z,4.80
2023-03-23T16:18:57.346Z,4.57
2023-03-23T16:21:25.572Z,3.95
2023-03-23T16:23:54.314Z,3.92
2023-03-23T16:26:22.295Z,3.97
2023-03-23T16:28:50.627Z,4.13
2023-03-23T16:31:20.077Z,3.95
2023-03-23T16:33:47.828Z,3.45
2023-03-23T16:36:15.966Z,4.07
2023-03-23T16:38:49.271Z,3.70
2023-03-23T16:41:19.650Z,3.40
2023-03-23T16:43:47.451Z,3.53
2023-03-23T16:46:15.736Z,3.78
2023-03-23T16:48:43.503Z,3.17
2023-03-23T16:51:12.084Z,3.67
2023-03-23T16:53:39.920Z,2.65
2023-03-23T16:56:08.278Z,2.63
2023-03-23T16:58:36.288Z,2.40
2023-03-23T17:01:04.751Z,2.63
2023-03-23T17:03:35.627Z,2.50
2023-03-23T17:06:06.710Z,2.95
2023-03-23T17:08:35.023Z,3.53
2023-03-23T17:11:03.325Z,2.45
2023-03-23T17:13:31.401Z,2.70
2023-03-23T17:15:59.504Z,2.42
2023-03-23T17:18:29.222Z,2.80
2023-03-23T17:20:57.490Z,2.67
2023-03-23T17:23:25.284Z,2.72
2023-03-23T17:25:54.252Z,2.50
2023-03-23T17:28:22.179Z,2.30
2023-03-23T17:30:52.519Z,2.28
2023-03-23T17:33:23.826Z,2.22
2023-03-23T17:35:52.293Z,2.15
2023-03-23T17:38:20.409Z,2.83
2023-03-23T17:40:48.479Z,2.70
2023-03-23T17:43:18.739Z,2.88
2023-03-23T17:45:47.434Z,2.45
2023-03-23T17:48:15.701Z,3.10
2023-03-23T17:50:48.327Z,2.72
2023-03-23T17:53:18.523Z,3.58
2023-03-23T17:55:49.090Z,3.10
2023-03-23T17:58:16.888Z,3.50
2023-03-23T18:00:45.499Z,2.75
2023-03-23T18:03:13.377Z,3.35
2023-03-23T18:05:41.776Z,3.17
2023-03-23T18:08:09.877Z,3.30
2023-03-23T18:10:39.412Z,3.10
2023-03-23T18:13:08.196Z,4.20
2023-03-23T18:15:37.266Z,3.22
2023-03-23T18:18:06.061Z,3.83
2023-03-23T18:20:34.311Z,3.03
2023-03-23T18:23:04.710Z,3.42
2023-03-23T18:25:33.835Z,3.22
2023-03-23T18:28:04.619Z,2.95
2023-03-23T18:30:35.543Z,3.30
2023-03-23T18:33:03.614Z,4.03
2023-03-23T18:35:31.798Z,2.90
2023-03-23T18:37:59.795Z,3.03
2023-03-23T18:40:27.773Z,3.90
2023-03-23T18:42:55.593Z,3.47
2023-03-23T18:45:23.675Z,2.78
2023-03-23T18:47:54.245Z,2.80
2023-03-23T18:50:22.539Z,2.58
2023-03-23T18:52:50.430Z,2.60
2023-03-23T18:55:20.784Z,2.50
2023-03-23T18:57:49.794Z,2.55
2023-03-23T19:00:18.531Z,2.58
2023-03-23T19:02:46.287Z,2.10
2023-03-23T19:05:20.378Z,2.05
2023-03-23T19:07:48.143Z,3.20
2023-03-23T19:10:17.351Z,2.78
2023-03-23T19:12:46.563Z,2.63
2023-03-23T19:15:16.517Z,2.97
2023-03-23T19:17:45.618Z,2.88
2023-03-23T19:20:19.715Z,2.42
2023-03-23T19:23:02.210Z,1.95
2023-03-23T19:25:30.391Z,2.47
2023-03-23T19:28:45.370Z,2.28
2023-03-23T19:30:53.273Z,2.08
2023-03-23T19:33:21.468Z,1.98
2023-03-23T19:36:06.218Z,2.53
2023-03-23T19:38:37.159Z,2.22
2023-03-23T19:41:06.470Z,2.10
2023-03-23T19:43:34.636Z,2.20
2023-03-23T19:46:02.998Z,2.45
2023-03-23T19:48:31.162Z,2.50
2023-03-23T19:50:59.215Z,2.08
2023-03-23T19:53:29.390Z,2.72
2023-03-23T19:55:57.481Z,2.00
2023-03-23T19:58:26.452Z,2.85
2023-03-23T20:00:57.497Z,2.47
2023-03-23T20:03:26.056Z,2.22
2023-03-23T20:06:04.106Z,2.45
2023-03-23T20:08:32.207Z,2.45
2023-03-23T20:11:09.097Z,3.22
2023-03-23T20:13:36.944Z,2.70
2023-03-23T20:16:05.200Z,2.55
2023-03-23T20:18:34.100Z,2.67
2023-03-23T20:21:08.913Z,2.60
2023-03-23T20:23:40.405Z,1.98
2023-03-23T20:26:12.434Z,2.40
2023-03-23T20:28:42.344Z,2.08
2023-03-23T20:31:26.402Z,2.70
2023-03-23T20:34:02.063Z,2.15
2023-03-23T20:36:35.628Z,2.05
2023-03-23T20:39:12.604Z,2.03
2023-03-23T20:41:41.197Z,1.90
2023-03-23T20:44:15.847Z,2.42
2023-03-23T20:46:53.434Z,1.80
2023-03-23T20:49:22.108Z,1.90
2023-03-23T20:51:51.953Z,2.50
2023-03-23T20:54:22.390Z,2.00
2023-03-23T20:56:53.285Z,2.20
2023-03-23T20:59:21.979Z,2.20
2023-03-23T21:01:50.588Z,2.00
2023-03-23T21:04:23.071Z,2.10
2023-03-23T21:06:52.076Z,2.10
2023-03-23T21:09:20.421Z,2.03
2023-03-23T21:11:49.281Z,1.95
2023-03-23T21:14:17.405Z,2.28
2023-03-23T21:16:45.745Z,2.60
2023-03-23T21:19:13.637Z,2.00
2023-03-23T21:21:56.259Z,2.40
2023-03-23T21:24:30.233Z,1.83
2023-03-23T21:27:05.454Z,2.10
2023-03-23T21:29:33.392Z,2.10
2023-03-23T21:32:08.397Z,2.38
2023-03-23T21:34:38.156Z,2.05
2023-03-23T21:37:06.203Z,2.00
2023-03-23T21:39:34.767Z,1.95
2023-03-23T21:42:06.760Z,2.53
2023-03-23T21:44:35.412Z,2.60
2023-03-23T21:47:03.883Z,2.10
2023-03-23T21:49:31.813Z,2.20
2023-03-23T21:52:00.092Z,2.10
2023-03-23T21:54:30.424Z,2.10
2023-03-23T21:56:59.433Z,1.90
2023-03-23T21:59:27.987Z,1.73
2023-03-23T22:01:58.337Z,2.00
2023-03-23T22:04:27.833Z,2.25
2023-03-23T22:06:56.496Z,1.80
2023-03-23T22:09:24.297Z,1.90
2023-03-23T22:11:52.430Z,1.58
2023-03-23T22:14:20.392Z,1.98
2023-03-23T22:16:51.153Z,2.00
2023-03-23T22:19:19.733Z,1.85
2023-03-23T22:21:48.044Z,2.00
2023-03-23T22:24:16.086Z,2.22
2023-03-23T22:26:44.554Z,2.03
2023-03-23T22:29:12.567Z,1.90
2023-03-23T22:31:41.005Z,1.70
2023-03-23T22:34:09.089Z,2.05
2023-03-23T22:36:38.846Z,1.95
2023-03-23T22:39:07.706Z,2.35
2023-03-23T22:44:14.498Z,1.98
2023-03-23T22:46:42.902Z,2.20
2023-03-23T22:49:11.378Z,1.90
2023-03-23T22:51:39.839Z,2.20
2023-03-23T22:54:07.744Z,2.17
2023-03-23T22:56:37.226Z,1.92
2023-03-23T22:59:06.801Z,2.00
2023-03-23T23:01:35.608Z,1.88
2023-03-23T23:04:04.260Z,2.13
2023-03-23T23:06:32.768Z,2.35
2023-03-23T23:09:00.589Z,2.30
2023-03-23T23:11:31.465Z,2.20
2023-03-23T23:13:59.342Z,2.30
2023-03-23T23:16:27.783Z,2.45
2023-03-23T23:18:56.224Z,3.25
2023-03-23T23:21:26.700Z,2.55
2023-03-23T23:23:55.071Z,2.75
2023-03-23T23:26:25.587Z,3.00
2023-03-23T23:28:53.553Z,3.58
2023-03-23T23:31:31.324Z,3.20
2023-03-23T23:34:00.860Z,2.45
2023-03-23T23:36:30.419Z,3.13
2023-03-23T23:39:01.125Z,2.75
2023-03-23T23:41:31.808Z,2.53
2023-03-23T23:44:00.196Z,3.20
2023-03-23T23:46:30.772Z,2.80
2023-03-23T23:48:59.563Z,2.70
2023-03-23T23:51:28.483Z,3.33
2023-03-23T23:53:58.913Z,2.70
2023-03-23T23:56:28.221Z,2.65
2023-03-23T23:58:56.143Z,2.90
